Theta, North Carolina
Current Conditions -  °F | °C
As of 2:35 AM on Monday 22 Dec 2014 (Local Time) from KGEV Reporting Station
Moderate Fog Moderate Fog  
Wind Chill: 34°   Ceiling: 300
Heat Index: 34°   Visibility: 0.25mi
Dew Point: 34°   Wind: 0mph
Humidity: 100%   Direction: NA
Pressure: 30.11"   Gusts: NA
Location:  36.4009°N, 81.4072°W
Report Text: KGEV 220735Z AUTO 00000KT 1/4SM FG OVC003 01/01 A3011 RMK AO2 T00090009
Loading
Personal Weather Stations






























Interactive Weather Map New forecast layout! Learn more

10-Day Weather Forecast

Advertisements
Track Severe Weather on mobile